Open Full Screen Window  High Contrast Mode
Wind Gusting 28 knots
22
November 23, 2014 10:50 PM CST
Weather Information
Wind Direction
  320 °
Wind Speed
  22 kt (25 mph)
Wind Gust
  28 kt (32 mph)
Altimeter
29.54 in
Visibility
10 SM
Temperature
-05° C
23° F
Dewpoint
-07° C
19° F
Humidity
86%
1hr Rain Fall
00.00 in.
24hr Rain Fall
00.00 in.
Sky Condition
Overcast @ 1,600 ft
MVFR

METAR KMDS 240450Z AUTO 32022G28KT 10SM OVC016 M05/M07 A2954 RMK AO2

*Background is not an actual portrayal of the airport.